Time;durP1;ratioP1;P1;durP2;ratioP2;P2;SDS_P1;SDS_P2;PMS_P1;PMS_P2;Temp;Humidity;BMP_temperature;BMP_pressure;BME280_temperature;BME280_humidity;BME280_pressure;Samples;Min_cycle;Max_cycle;Signal;HPM_P1;HPM_P2
2022/02/04 00:23:51;;;;;;;3.87;1.30;;;8.20;99.90;;;;;;5072642;28;20667;-66
2022/02/04 00:26:25;;;;;;;2.97;1.00;;;8.20;99.90;;;;;;5064890;28;20223;-66
2022/02/04 00:31:52;;;;;;;4.23;0.80;;;8.10;99.90;;;;;;5074511;28;20229;-68
2022/02/04 00:34:21;;;;;;;5.23;1.47;;;8.10;99.90;;;;;;5074517;28;20266;-66
2022/02/04 00:37:05;;;;;;;8.27;1.63;;;8.10;99.90;;;;;;5070395;28;20670;-65
2022/02/04 00:39:39;;;;;;;5.37;1.00;;;8.10;99.90;;;;;;5085149;28;20182;-65
2022/02/04 00:42:09;;;;;;;3.93;1.00;;;8.00;99.90;;;;;;5074024;28;20202;-66
2022/02/04 00:44:38;;;;;;;3.83;1.03;;;8.00;99.90;;;;;;5080118;28;20206;-66
2022/02/04 00:47:13;;;;;;;11.77;1.30;;;8.00;99.90;;;;;;5050599;28;20794;-66
2022/02/04 00:52:41;;;;;;;2.23;0.90;;;7.90;99.90;;;;;;5067166;28;20242;-67
2022/02/04 00:55:17;;;;;;;7.50;1.50;;;7.90;99.90;;;;;;5065954;28;20293;-67
2022/02/04 01:13:03;;;;;;;4.50;0.90;;;7.80;99.90;;;;;;5077765;28;20182;-66
2022/02/04 01:25:56;;;;;;;7.57;1.40;;;7.80;99.90;;;;;;5067483;28;20535;-66
2022/02/04 01:28:25;;;;;;;7.37;1.03;;;7.80;99.90;;;;;;5069656;28;20236;-65
2022/02/04 01:30:53;;;;;;;4.10;1.20;;;7.90;99.90;;;;;;5082099;28;20210;-65
2022/02/04 01:33:20;;;;;;;5.97;1.30;;;7.90;99.90;;;;;;5067427;28;20849;-67
2022/02/04 01:35:47;;;;;;;7.63;1.33;;;7.90;99.90;;;;;;5072759;28;20206;-65
2022/02/04 01:38:13;;;;;;;7.13;1.03;;;7.90;99.90;;;;;;5081534;28;20574;-66
2022/02/04 01:40:40;;;;;;;5.80;1.13;;;7.90;99.90;;;;;;5082495;28;20191;-67
2022/02/04 01:43:06;;;;;;;7.77;1.23;;;8.00;99.90;;;;;;5080768;28;20297;-66
2022/02/04 01:45:33;;;;;;;5.70;1.20;;;7.90;99.90;;;;;;5085263;28;20761;-66
2022/02/04 01:47:59;;;;;;;9.63;1.30;;;8.00;99.90;;;;;;5086493;28;20339;-66
2022/02/04 01:50:30;;;;;;;7.30;1.70;;;8.10;99.90;;;;;;5085344;28;20192;-65
2022/02/04 01:52:59;;;;;;;3.17;1.00;;;8.10;99.90;;;;;;5068818;28;20785;-65
2022/02/04 01:55:27;;;;;;;7.10;1.40;;;8.10;99.90;;;;;;5080759;28;20257;-67
2022/02/04 01:57:53;;;;;;;4.37;1.40;;;8.10;99.90;;;;;;5082486;28;20278;-67
2022/02/04 02:00:20;;;;;;;5.73;1.40;;;8.10;99.90;;;;;;5084753;28;20774;-65
2022/02/04 02:02:46;;;;;;;5.37;1.03;;;8.10;99.90;;;;;;5069414;28;20332;-67
2022/02/04 02:05:13;;;;;;;4.27;1.07;;;8.00;99.90;;;;;;5065062;28;20208;-66
2022/02/04 02:07:46;;;;;;;3.93;0.93;;;8.00;99.90;;;;;;5075652;28;20203;-66
2022/02/04 02:10:17;;;;;;;6.37;1.63;;;8.00;99.90;;;;;;5078510;28;20193;-66
2022/02/04 02:40:56;;;;;;;3.00;0.50;;;7.90;99.90;;;;;;5070519;28;20182;-66
2022/02/04 02:53:51;;;;;;;4.00;0.60;;;7.90;99.90;;;;;;5066252;28;20357;-67
2022/02/04 02:56:52;;;;;;;2.03;0.60;;;7.90;99.90;;;;;;5063810;28;20592;-66
2022/02/04 02:59:10;;;;;;;5.50;0.73;;;7.90;99.90;;;;;;5070128;28;20558;-65
2022/02/04 03:01:39;;;;;;;4.60;0.73;;;8.00;99.90;;;;;;5079530;28;20190;-67
2022/02/04 03:04:09;;;;;;;4.07;1.03;;;7.90;99.90;;;;;;5083410;28;20185;-66
2022/02/04 03:06:36;;;;;;;2.20;0.70;;;7.90;99.90;;;;;;5072721;28;20179;-67
2022/02/04 03:09:02;;;;;;;2.23;0.60;;;7.90;99.90;;;;;;5071866;28;20261;-67
2022/02/04 03:11:29;;;;;;;3.83;0.87;;;7.90;99.90;;;;;;5080156;28;20186;-67
2022/02/04 03:13:55;;;;;;;1.20;0.33;;;7.90;99.90;;;;;;5083048;28;20208;-65
2022/02/04 03:16:23;;;;;;;4.67;0.73;;;7.80;99.90;;;;;;5065679;28;20186;-68
2022/02/04 03:18:52;;;;;;;2.93;0.67;;;7.80;99.90;;;;;;5096634;28;20502;-65
2022/02/04 03:21:25;;;;;;;2.57;0.50;;;7.80;99.90;;;;;;5062443;28;20839;-67
2022/02/04 03:24:05;;;;;;;1.20;0.40;;;7.80;99.90;;;;;;5060959;28;20210;-66
2022/02/04 03:27:15;;;;;;;2.67;0.43;;;7.80;99.90;;;;;;5062735;28;20187;-65
2022/02/04 03:29:32;;;;;;;2.97;0.63;;;7.70;99.90;;;;;;5069755;28;20284;-67
2022/02/04 03:32:07;;;;;;;2.87;0.50;;;7.70;99.90;;;;;;5074660;28;20218;-67
2022/02/04 03:34:33;;;;;;;2.90;0.90;;;7.70;99.90;;;;;;5063245;28;20178;-67
2022/02/04 03:37:00;;;;;;;1.80;0.63;;;7.70;99.90;;;;;;5090526;28;20178;-65
2022/02/04 03:39:26;;;;;;;3.27;0.50;;;7.60;99.90;;;;;;5097975;28;20666;-66
2022/02/04 03:41:52;;;;;;;1.50;0.50;;;7.60;99.90;;;;;;5077713;28;20670;-66
2022/02/04 03:44:19;;;;;;;2.13;0.67;;;7.70;99.90;;;;;;5070116;28;20588;-65
2022/02/04 03:46:45;;;;;;;5.20;0.87;;;7.60;99.90;;;;;;5083681;28;20273;-68
2022/02/04 03:49:11;;;;;;;2.10;0.50;;;7.60;99.90;;;;;;5081088;28;20226;-67
2022/02/04 03:51:38;;;;;;;8.83;0.80;;;7.60;99.90;;;;;;5078797;28;20257;-66
2022/02/04 03:54:04;;;;;;;1.37;0.60;;;7.60;99.90;;;;;;5047784;28;20602;-67
2022/02/04 03:56:30;;;;;;;7.70;0.77;;;7.60;99.90;;;;;;5063016;28;20186;-65
2022/02/04 03:58:56;;;;;;;1.57;0.60;;;7.60;99.90;;;;;;5063051;28;20322;-65
2022/02/04 04:01:23;;;;;;;3.47;0.60;;;7.70;99.90;;;;;;5062718;28;20179;-66
2022/02/04 04:03:49;;;;;;;2.90;0.60;;;7.70;99.90;;;;;;5082117;28;20670;-65
2022/02/04 04:06:17;;;;;;;4.13;0.73;;;7.60;99.90;;;;;;5082704;28;20554;-68
2022/02/04 04:08:43;;;;;;;5.27;0.67;;;7.60;99.90;;;;;;5071257;28;20197;-65
2022/02/04 04:11:11;;;;;;;12.97;1.03;;;7.60;99.90;;;;;;5079370;28;20194;-65
2022/02/04 04:13:38;;;;;;;3.67;0.57;;;7.60;99.90;;;;;;5047879;28;20725;-67
2022/02/04 04:16:05;;;;;;;0.63;0.47;;;7.60;99.90;;;;;;5087338;28;20190;-66
2022/02/04 04:18:31;;;;;;;2.37;0.50;;;7.60;99.90;;;;;;5075684;28;20234;-66
2022/02/04 04:20:57;;;;;;;2.03;0.60;;;7.60;99.90;;;;;;5081897;28;20197;-65
2022/02/04 04:23:23;;;;;;;2.00;0.70;;;7.60;99.90;;;;;;5064667;28;20658;-65
2022/02/04 04:25:50;;;;;;;3.20;0.63;;;7.60;99.90;;;;;;5065111;28;20246;-66
2022/02/04 04:28:16;;;;;;;2.03;0.90;;;7.60;99.90;;;;;;5069021;28;20198;-66
2022/02/04 04:30:42;;;;;;;6.97;2.00;;;7.60;99.90;;;;;;5081160;28;20199;-66
2022/02/04 04:33:10;;;;;;;0.97;0.70;;;7.70;99.90;;;;;;5066102;28;20219;-65
2022/02/04 04:35:37;;;;;;;1.40;0.67;;;7.60;99.90;;;;;;5082721;28;20199;-67
2022/02/04 04:38:14;;;;;;;0.50;0.40;;;7.60;99.90;;;;;;5065135;28;20179;-67
2022/02/04 04:40:59;;;;;;;2.57;0.90;;;7.60;99.90;;;;;;5083616;28;20258;-66
2022/02/04 04:43:58;;;;;;;3.17;1.00;;;7.50;99.90;;;;;;5081857;28;20194;-65
2022/02/04 05:30:17;;;;;;;4.57;1.00;;;7.60;99.90;;;;;;5063998;28;20542;-66
2022/02/04 05:32:44;;;;;;;5.17;0.80;;;7.60;99.90;;;;;;5071496;28;20722;-65
2022/02/04 05:35:11;;;;;;;4.73;0.80;;;7.60;99.90;;;;;;5046799;28;20336;-66
2022/02/04 05:37:42;;;;;;;2.37;0.70;;;7.60;99.90;;;;;;5084634;28;20949;-66
2022/02/04 05:40:13;;;;;;;3.30;1.07;;;7.60;99.90;;;;;;5082904;28;20225;-64
2022/02/04 05:42:46;;;;;;;2.83;1.03;;;7.70;99.90;;;;;;5066982;28;20225;-66
2022/02/04 05:45:24;;;;;;;3.03;0.90;;;7.70;99.90;;;;;;5064362;28;20686;-65
2022/02/04 05:47:57;;;;;;;1.90;0.53;;;7.80;99.90;;;;;;5065210;28;20240;-65
2022/02/04 05:58:16;;;;;;;4.77;0.90;;;8.20;99.90;;;;;;5083772;28;20178;-64
2022/02/04 06:06:06;;;;;;;3.03;0.53;;;8.40;99.90;;;;;;5064911;28;20185;-65
2022/02/04 06:22:22;;;;;;;3.87;1.03;;;8.70;99.90;;;;;;5083705;28;20292;-66
2022/02/04 06:24:52;;;;;;;4.73;0.60;;;8.70;99.90;;;;;;5078600;28;20202;-65
2022/02/04 06:27:22;;;;;;;5.87;1.20;;;8.80;99.90;;;;;;5077891;28;20191;-64
2022/02/04 06:29:51;;;;;;;6.60;1.17;;;8.80;99.90;;;;;;5070272;28;20659;-64
2022/02/04 06:32:19;;;;;;;1.70;0.57;;;8.90;99.90;;;;;;5076771;28;20218;-65
2022/02/04 06:34:49;;;;;;;3.67;1.00;;;8.90;99.90;;;;;;5085646;28;20182;-65
2022/02/04 06:37:16;;;;;;;1.73;0.60;;;9.00;99.90;;;;;;5064859;28;20190;-66
2022/02/04 06:39:42;;;;;;;6.73;0.80;;;9.00;99.90;;;;;;5074969;28;20191;-65
2022/02/04 06:42:08;;;;;;;4.77;0.83;;;9.10;99.90;;;;;;5072313;28;20210;-65
2022/02/04 06:44:36;;;;;;;4.07;1.00;;;9.10;99.90;;;;;;5079489;28;20214;-64
2022/02/04 06:47:05;;;;;;;3.67;0.90;;;9.10;99.90;;;;;;5095721;28;20190;-64
2022/02/04 06:49:32;;;;;;;6.73;0.90;;;9.10;99.90;;;;;;5087353;28;20213;-66
2022/02/04 06:51:58;;;;;;;4.63;0.80;;;9.20;99.90;;;;;;5059788;28;20206;-64
2022/02/04 06:54:25;;;;;;;7.10;0.97;;;9.20;99.90;;;;;;5067430;28;20591;-65
2022/02/04 06:56:51;;;;;;;3.43;0.90;;;9.20;99.90;;;;;;5076558;28;20240;-64
2022/02/04 06:59:17;;;;;;;3.03;0.80;;;9.20;99.90;;;;;;5068005;28;20709;-66
2022/02/04 07:01:44;;;;;;;4.53;0.93;;;9.20;99.90;;;;;;5069546;28;20212;-66
2022/02/04 07:04:12;;;;;;;3.97;1.00;;;9.20;99.90;;;;;;5070559;28;20190;-65
2022/02/04 07:06:41;;;;;;;5.13;0.90;;;9.30;99.90;;;;;;5067493;28;20187;-65
2022/02/04 07:19:48;;;;;;;4.60;0.70;;;9.50;99.90;;;;;;5081510;28;20229;-65
2022/02/04 07:22:27;;;;;;;2.23;0.70;;;9.70;99.90;;;;;;5074570;28;20268;-64
2022/02/04 07:24:59;;;;;;;5.10;1.00;;;9.70;99.90;;;;;;5071393;28;20198;-66
2022/02/04 07:27:30;;;;;;;3.57;0.80;;;9.80;99.90;;;;;;5073238;28;20187;-65
2022/02/04 07:29:57;;;;;;;6.10;1.10;;;9.80;99.90;;;;;;5078053;28;20346;-65
2022/02/04 07:43:04;;;;;;;3.00;0.70;;;10.10;99.90;;;;;;5066874;28;20674;-65
2022/02/04 07:45:33;;;;;;;1.77;0.67;;;10.20;99.90;;;;;;5070532;28;20209;-65
2022/02/04 07:48:00;;;;;;;1.97;0.70;;;10.20;99.90;;;;;;5075875;28;20194;-65
2022/02/04 07:50:27;;;;;;;1.33;0.43;;;10.20;99.90;;;;;;5081681;28;20790;-65
2022/02/04 07:52:55;;;;;;;1.30;0.50;;;10.30;99.90;;;;;;5087512;28;20209;-66
2022/02/04 07:55:22;;;;;;;3.60;0.70;;;10.40;99.90;;;;;;5095195;28;20197;-66
2022/02/04 07:57:50;;;;;;;1.77;0.50;;;10.40;99.90;;;;;;5071730;28;20601;-66
2022/02/04 08:00:17;;;;;;;1.70;0.57;;;10.50;99.90;;;;;;5075232;28;20190;-65
2022/02/04 08:02:48;;;;;;;1.33;0.23;;;10.50;99.90;;;;;;5078189;28;20282;-65
2022/02/04 08:05:19;;;;;;;2.27;0.50;;;10.60;99.90;;;;;;5075411;28;20264;-66
2022/02/04 08:10:28;;;;;;;1.60;0.50;;;10.60;99.90;;;;;;5086001;28;20193;-65
2022/02/04 08:16:14;;;;;;;0.37;0.27;;;10.50;99.90;;;;;;5082245;28;20193;-65
2022/02/04 08:32:18;;;;;;;1.30;0.70;;;10.70;99.90;;;;;;5065041;28;20214;-64
2022/02/04 08:51:04;;;;;;;0.77;0.50;;;10.80;99.90;;;;;;5073329;28;20286;-64
2022/02/04 08:56:04;;;;;;;3.37;0.97;;;10.80;99.90;;;;;;5081928;28;20199;-65
2022/02/04 08:58:41;;;;;;;0.80;0.53;;;10.90;99.90;;;;;;5061551;28;20179;-64
2022/02/04 09:01:32;;;;;;;2.57;0.50;;;11.00;99.90;;;;;;5085004;28;20281;-64
2022/02/04 09:04:15;;;;;;;1.83;0.60;;;11.20;99.90;;;;;;5072513;28;20188;-65
2022/02/04 09:06:49;;;;;;;2.73;0.73;;;11.20;99.90;;;;;;5092107;28;20187;-65
2022/02/04 09:09:29;;;;;;;1.23;0.70;;;11.10;99.90;;;;;;5074734;28;20229;-66
2022/02/04 09:12:08;;;;;;;1.47;0.70;;;11.00;99.90;;;;;;5081043;28;20284;-65
2022/02/04 09:17:49;;;;;;;4.03;0.80;;;10.80;99.90;;;;;;5079437;28;20182;-65
2022/02/04 09:20:26;;;;;;;5.70;1.10;;;10.80;99.90;;;;;;5080671;28;20204;-66
2022/02/04 09:22:53;;;;;;;4.40;1.10;;;10.80;99.90;;;;;;5085976;28;20414;-64
2022/02/04 09:25:19;;;;;;;6.83;1.40;;;10.80;99.90;;;;;;5069141;28;20194;-67
2022/02/04 09:27:46;;;;;;;6.57;1.47;;;10.70;99.90;;;;;;5083535;28;20198;-66
2022/02/04 09:30:16;;;;;;;4.40;1.10;;;10.70;99.90;;;;;;5072801;28;20669;-65
2022/02/04 09:32:48;;;;;;;4.83;1.27;;;10.60;99.90;;;;;;5083201;28;20214;-66
2022/02/04 09:35:19;;;;;;;7.77;1.57;;;10.60;99.90;;;;;;5079926;28;20194;-65
2022/02/04 09:37:48;;;;;;;6.90;1.10;;;10.60;99.90;;;;;;5069017;28;20459;-66
2022/02/04 09:40:17;;;;;;;2.23;1.00;;;10.60;99.90;;;;;;5075446;28;20576;-68
2022/02/04 09:42:45;;;;;;;4.50;1.30;;;10.60;99.90;;;;;;5079232;28;20285;-65
2022/02/04 09:45:24;;;;;;;5.73;1.70;;;10.70;99.90;;;;;;5079516;28;20186;-66
2022/02/04 09:48:09;;;;;;;6.10;2.17;;;10.80;99.90;;;;;;5068802;28;21029;-66
2022/02/04 09:50:42;;;;;;;7.07;1.93;;;10.80;99.90;;;;;;5084060;28;20190;-66
2022/02/04 10:13:22;;;;;;;5.27;1.20;;;11.10;99.90;;;;;;5064841;28;20280;-66
2022/02/04 10:18:57;;;;;;;5.83;1.20;;;10.90;99.90;;;;;;5083517;28;20852;-67
2022/02/04 10:21:29;;;;;;;4.00;1.13;;;10.80;99.90;;;;;;5082457;28;20209;-66
2022/02/04 10:24:00;;;;;;;3.80;1.37;;;10.80;99.90;;;;;;5084830;28;20589;-67
2022/02/04 10:26:26;;;;;;;6.00;1.50;;;10.90;99.90;;;;;;5084871;28;20690;-66
2022/02/04 10:28:54;;;;;;;4.23;1.00;;;11.00;99.90;;;;;;5072991;28;20681;-66
2022/02/04 10:31:29;;;;;;;2.83;0.90;;;11.10;99.90;;;;;;5054387;28;20269;-67
2022/02/04 10:34:11;;;;;;;5.33;1.20;;;11.10;99.90;;;;;;5069160;28;20243;-66
2022/02/04 11:01:36;;;;;;;2.13;1.00;;;10.70;99.90;;;;;;5086749;28;20748;-65
2022/02/04 11:04:16;;;;;;;3.30;0.63;;;10.80;99.90;;;;;;5046499;28;20658;-67
2022/02/04 11:10:16;;;;;;;3.20;0.90;;;11.70;99.90;;;;;;5064128;28;20308;-66
2022/02/04 11:31:56;;;;;;;3.97;0.83;;;11.40;99.90;;;;;;5064077;28;20179;-66
2022/02/04 11:34:38;;;;;;;2.63;0.97;;;11.50;99.90;;;;;;5064134;28;20635;-67
2022/02/04 11:43:44;;;;;;;5.67;1.20;;;11.50;99.90;;;;;;5064559;28;20525;-67
2022/02/04 11:52:03;;;;;;;4.40;1.00;;;12.30;99.90;;;;;;5066952;28;20539;-67
2022/02/04 11:54:33;;;;;;;2.80;1.00;;;12.30;99.90;;;;;;5084891;28;20178;-65
2022/02/04 11:57:03;;;;;;;3.07;1.30;;;12.10;99.90;;;;;;5082000;28;20197;-67
2022/02/04 11:59:47;;;;;;;4.33;1.00;;;11.90;99.90;;;;;;5077779;28;20194;-66
2022/02/04 12:02:29;;;;;;;6.00;1.33;;;11.70;99.90;;;;;;5055989;28;20186;-67
2022/02/04 12:05:08;;;;;;;4.20;1.10;;;11.70;99.90;;;;;;5082614;28;20194;-68
2022/02/04 12:07:35;;;;;;;2.57;1.20;;;11.50;99.90;;;;;;5084104;28;20182;-66
2022/02/04 12:10:34;;;;;;;3.23;1.00;;;11.40;99.90;;;;;;5082883;28;20350;-66
2022/02/04 12:13:09;;;;;;;4.20;1.17;;;11.40;99.90;;;;;;5081596;28;20222;-68
2022/02/04 12:16:06;;;;;;;2.33;1.03;;;11.40;99.90;;;;;;5084170;28;20209;-66
2022/02/04 12:18:45;;;;;;;2.03;1.30;;;11.30;99.90;;;;;;5083674;28;20178;-68
2022/02/04 12:21:15;;;;;;;5.37;0.90;;;11.30;99.90;;;;;;5083393;28;20696;-65
2022/02/04 12:23:46;;;;;;;2.33;0.90;;;11.30;99.90;;;;;;5082662;28;20182;-66
2022/02/04 12:26:27;;;;;;;6.33;1.00;;;11.30;99.90;;;;;;5080359;28;20203;-66
2022/02/04 12:29:05;;;;;;;1.83;0.80;;;11.30;99.90;;;;;;5062244;28;20191;-67
2022/02/04 12:31:45;;;;;;;2.60;0.50;;;11.30;99.90;;;;;;5063983;28;20195;-66
2022/02/04 12:34:16;;;;;;;2.60;0.83;;;11.30;99.90;;;;;;5077678;28;20897;-65
2022/02/04 12:36:55;;;;;;;1.07;0.70;;;11.30;99.90;;;;;;5065268;28;20535;-66
2022/02/04 12:39:30;;;;;;;1.43;0.60;;;11.30;99.90;;;;;;5067366;28;20183;-67
2022/02/04 12:42:01;;;;;;;0.57;0.57;;;11.30;99.90;;;;;;5071082;28;20202;-68
2022/02/04 12:44:39;;;;;;;3.90;0.83;;;11.30;99.90;;;;;;5082580;28;20210;-65
2022/02/04 12:47:22;;;;;;;1.10;0.67;;;11.40;99.90;;;;;;5082402;28;20201;-67
2022/02/04 12:50:00;;;;;;;3.13;0.90;;;11.40;99.90;;;;;;5082001;28;20301;-65
2022/02/04 12:52:30;;;;;;;2.10;0.70;;;11.40;99.90;;;;;;5066491;28;20293;-66
2022/02/04 12:55:20;;;;;;;1.90;0.90;;;11.50;99.90;;;;;;5082667;28;20214;-65
2022/02/04 12:58:10;;;;;;;1.20;0.80;;;11.50;99.90;;;;;;5081629;28;20672;-66
2022/02/04 13:03:15;;;;;;;2.10;0.80;;;11.70;99.90;;;;;;5085204;28;20186;-65
2022/02/04 13:08:48;;;;;;;0.83;0.70;;;11.70;99.90;;;;;;5087434;28;20182;-66
2022/02/04 13:11:18;;;;;;;0.53;0.50;;;11.70;99.90;;;;;;5086756;28;20209;-67
2022/02/04 13:13:55;;;;;;;1.07;0.60;;;11.70;99.90;;;;;;5085057;28;20214;-67
2022/02/04 13:16:30;;;;;;;1.33;0.60;;;11.60;99.90;;;;;;5085300;28;20272;-63
2022/02/04 13:19:05;;;;;;;0.83;0.60;;;11.60;99.90;;;;;;5086682;28;20235;-65
2022/02/04 13:21:32;;;;;;;0.77;0.43;;;11.60;99.90;;;;;;5085338;28;20665;-65
2022/02/04 13:24:07;;;;;;;0.63;0.30;;;11.60;99.90;;;;;;5086393;28;20218;-65
2022/02/04 13:26:34;;;;;;;2.80;0.50;;;11.60;99.90;;;;;;5064958;28;20198;-66
2022/02/04 13:29:06;;;;;;;1.23;0.40;;;11.70;99.90;;;;;;5079958;28;20204;-66
2022/02/04 13:31:36;;;;;;;1.10;0.50;;;11.70;99.90;;;;;;5082334;28;20182;-65
2022/02/04 13:34:13;;;;;;;0.90;0.50;;;11.70;99.90;;;;;;5080535;28;20262;-66
2022/02/04 13:36:54;;;;;;;2.33;0.50;;;11.70;99.90;;;;;;5081778;28;20182;-68
2022/02/04 13:39:45;;;;;;;0.57;0.40;;;11.70;99.90;;;;;;5081542;28;20206;-66
2022/02/04 13:44:52;;;;;;;2.47;0.57;;;11.60;99.90;;;;;;5098406;28;20553;-68
2022/02/04 13:47:37;;;;;;;4.50;0.70;;;11.60;99.90;;;;;;5066384;28;20237;-65
2022/02/04 13:50:44;;;;;;;1.70;0.50;;;11.60;99.90;;;;;;5046916;28;20190;-67
2022/02/04 13:53:34;;;;;;;2.27;0.70;;;11.70;99.90;;;;;;5097757;28;20206;-66
2022/02/04 13:56:28;;;;;;;0.93;0.83;;;11.60;99.90;;;;;;5098022;28;20233;-67
2022/02/04 13:59:14;;;;;;;1.63;0.67;;;11.60;99.90;;;;;;5076200;28;20755;-67
2022/02/04 14:01:46;;;;;;;1.57;0.97;;;11.50;99.90;;;;;;5082257;28;20193;-67
2022/02/04 14:04:13;;;;;;;1.50;0.70;;;11.50;99.90;;;;;;5085263;28;20210;-66
2022/02/04 14:06:39;;;;;;;1.13;0.80;;;11.50;99.90;;;;;;5084155;28;20595;-65
2022/02/04 14:09:20;;;;;;;2.07;0.67;;;11.50;99.90;;;;;;5067782;28;20631;-66
2022/02/04 14:11:47;;;;;;;2.10;0.77;;;11.40;99.90;;;;;;5080497;28;20613;-66
2022/02/04 14:14:26;;;;;;;0.57;0.40;;;11.40;99.90;;;;;;5046919;28;20218;-67
2022/02/04 14:17:04;;;;;;;2.00;0.80;;;11.40;99.90;;;;;;5064339;28;20183;-66
2022/02/04 14:19:30;;;;;;;3.87;0.83;;;11.30;99.90;;;;;;5063393;28;20211;-65
2022/02/04 14:22:02;;;;;;;0.60;0.50;;;11.30;99.90;;;;;;5063627;28;20684;-65
2022/02/04 14:24:29;;;;;;;0.87;0.50;;;11.30;99.90;;;;;;5065365;28;20179;-65
2022/02/04 14:26:57;;;;;;;1.40;0.53;;;11.20;99.90;;;;;;5071790;28;20229;-68
2022/02/04 14:29:33;;;;;;;2.30;0.70;;;11.20;99.90;;;;;;5065168;28;20205;-65
2022/02/04 14:32:06;;;;;;;1.03;0.67;;;11.20;99.90;;;;;;5064551;28;20587;-67
2022/02/04 14:37:34;;;;;;;1.50;0.60;;;11.10;99.90;;;;;;5065632;28;20496;-66
2022/02/04 15:01:08;;;;;;;2.43;1.10;;;10.60;99.90;;;;;;5064716;28;20844;-65
2022/02/04 15:03:38;;;;;;;4.80;1.17;;;10.60;99.90;;;;;;5062581;28;20192;-67
2022/02/04 15:06:11;;;;;;;2.60;0.90;;;10.50;99.90;;;;;;5064369;28;20197;-66
2022/02/04 15:08:39;;;;;;;2.33;1.03;;;10.50;99.90;;;;;;5063532;28;20948;-66
2022/02/04 15:11:15;;;;;;;5.67;0.83;;;10.40;99.90;;;;;;5064725;28;20590;-66
2022/02/04 15:13:48;;;;;;;1.50;1.00;;;10.40;99.90;;;;;;5064257;28;20261;-66
2022/02/04 15:16:16;;;;;;;4.10;1.33;;;10.30;99.90;;;;;;5064424;28;20186;-67
2022/02/04 15:18:44;;;;;;;1.70;0.97;;;10.30;99.90;;;;;;5064731;28;20485;-66
2022/02/04 15:21:16;;;;;;;2.47;1.00;;;10.20;99.90;;;;;;5063887;28;20193;-67
2022/02/04 15:23:48;;;;;;;4.93;1.90;;;10.10;99.90;;;;;;5062480;28;20791;-65
2022/02/04 15:26:17;;;;;;;2.80;1.70;;;10.00;99.90;;;;;;5063317;28;20214;-65
2022/02/04 15:28:56;;;;;;;3.67;1.90;;;10.00;99.90;;;;;;5083324;28;20218;-67
2022/02/04 15:31:31;;;;;;;5.73;1.03;;;9.90;99.90;;;;;;5084805;28;20182;-65
2022/02/04 15:33:58;;;;;;;2.20;1.07;;;9.90;99.90;;;;;;5081863;28;20227;-65
2022/02/04 15:36:35;;;;;;;4.83;1.40;;;9.80;99.90;;;;;;5083119;28;20570;-66
2022/02/04 15:39:06;;;;;;;2.83;1.20;;;9.80;99.90;;;;;;5084369;28;20184;-66
2022/02/04 15:41:36;;;;;;;2.83;1.13;;;9.70;99.90;;;;;;5099697;28;20792;-65
2022/02/04 15:44:11;;;;;;;4.43;1.27;;;9.70;99.90;;;;;;5083725;28;20201;-66
2022/02/04 16:04:32;;;;;;;2.60;1.20;;;9.50;99.90;;;;;;5083937;28;20194;-66
2022/02/04 16:06:59;;;;;;;2.27;1.60;;;9.50;99.90;;;;;;5083829;28;20190;-65
2022/02/04 16:09:25;;;;;;;4.33;2.20;;;9.50;99.90;;;;;;5085437;28;20263;-67
2022/02/04 16:12:09;;;;;;;3.13;1.60;;;9.50;99.90;;;;;;5088070;28;20385;-66
2022/02/04 16:14:44;;;;;;;4.80;1.23;;;9.50;99.90;;;;;;5088638;28;20218;-68
2022/02/04 16:17:27;;;;;;;2.87;1.20;;;9.40;99.90;;;;;;5069986;28;20488;-65
2022/02/04 16:20:10;;;;;;;1.43;1.13;;;9.40;99.90;;;;;;5087850;28;20864;-65
2022/02/04 16:26:22;;;;;;;2.43;1.00;;;9.30;99.90;;;;;;5087511;28;21042;-66
2022/02/04 16:30:43;;;;;;;2.77;1.27;;;9.30;99.90;;;;;;5065967;28;20194;-64
2022/02/04 16:33:10;;;;;;;2.10;1.17;;;9.20;99.90;;;;;;5065337;28;20225;-65
2022/02/04 16:35:36;;;;;;;3.20;1.00;;;9.20;99.90;;;;;;5065108;28;20187;-66
2022/02/04 16:38:04;;;;;;;2.20;1.20;;;9.10;99.90;;;;;;5067741;28;20754;-65
2022/02/04 16:40:41;;;;;;;3.97;1.10;;;9.10;99.90;;;;;;5066910;28;20197;-66
2022/02/04 16:43:07;;;;;;;1.23;1.00;;;9.10;99.90;;;;;;5080177;28;20296;-65
2022/02/04 16:45:34;;;;;;;4.77;1.60;;;9.10;99.90;;;;;;5087600;28;20262;-66
2022/02/04 16:48:00;;;;;;;1.50;1.10;;;9.10;99.90;;;;;;5087327;28;20660;-66
2022/02/04 16:50:28;;;;;;;1.33;1.20;;;9.10;99.90;;;;;;5087031;28;20182;-67
2022/02/04 16:52:54;;;;;;;1.63;1.03;;;9.00;99.90;;;;;;5084956;28;20698;-65
2022/02/04 16:55:22;;;;;;;5.00;1.23;;;8.90;99.90;;;;;;5087373;28;20242;-67
2022/02/04 16:57:49;;;;;;;4.33;1.10;;;8.90;99.90;;;;;;5102630;28;20190;-67
2022/02/04 17:00:21;;;;;;;2.90;1.20;;;8.90;99.90;;;;;;5084730;28;20221;-65
2022/02/04 17:02:51;;;;;;;3.20;1.10;;;8.90;99.90;;;;;;5083995;28;20281;-66
2022/02/04 17:05:21;;;;;;;3.00;1.20;;;8.80;99.90;;;;;;5086574;28;20548;-65
2022/02/04 17:07:57;;;;;;;2.30;1.07;;;8.90;99.90;;;;;;5087370;28;20182;-66
2022/02/04 17:10:30;;;;;;;3.80;1.20;;;8.80;99.90;;;;;;5086767;28;20227;-66
2022/02/04 17:13:00;;;;;;;1.60;1.07;;;8.80;99.90;;;;;;5073927;28;20233;-65
2022/02/04 17:15:33;;;;;;;1.43;1.13;;;8.70;99.90;;;;;;5068013;28;20182;-66
2022/02/04 17:18:03;;;;;;;3.63;1.10;;;8.70;99.90;;;;;;5065446;28;20575;-66
2022/02/04 17:20:31;;;;;;;2.37;1.00;;;8.70;99.90;;;;;;5063948;28;20198;-65
2022/02/04 17:23:02;;;;;;;4.60;1.20;;;8.70;99.90;;;;;;5064653;28;20253;-65
2022/02/04 17:25:34;;;;;;;2.97;1.17;;;8.70;99.90;;;;;;5066208;28;20270;-66
2022/02/04 17:28:01;;;;;;;1.83;1.20;;;8.60;99.90;;;;;;5069632;28;20657;-65
2022/02/04 17:30:28;;;;;;;2.53;1.13;;;8.60;99.90;;;;;;5066488;28;20289;-66
2022/02/04 17:32:55;;;;;;;3.80;1.07;;;8.60;99.90;;;;;;5065672;28;20722;-65
2022/02/04 17:35:26;;;;;;;1.60;1.13;;;8.50;99.90;;;;;;5064301;28;20213;-65
2022/02/04 17:37:56;;;;;;;1.90;1.40;;;8.50;99.90;;;;;;5065162;28;20191;-66
2022/02/04 17:40:26;;;;;;;4.03;1.40;;;8.40;99.90;;;;;;5064933;28;20190;-65
2022/02/04 17:42:53;;;;;;;4.23;1.50;;;8.40;99.90;;;;;;5065754;28;20370;-66
2022/02/04 17:45:22;;;;;;;4.73;1.57;;;8.30;99.90;;;;;;5064746;28;20853;-65
2022/02/04 17:47:55;;;;;;;2.27;1.67;;;8.30;99.90;;;;;;5064962;28;20201;-65
2022/02/04 17:50:29;;;;;;;3.10;1.80;;;8.30;99.90;;;;;;5047075;28;20310;-66
2022/02/04 17:53:06;;;;;;;6.57;1.80;;;8.30;99.90;;;;;;5065770;28;20850;-65
2022/02/04 17:55:42;;;;;;;3.47;1.50;;;8.20;99.90;;;;;;5064076;28;20221;-66
2022/02/04 17:58:25;;;;;;;3.30;1.23;;;8.30;99.90;;;;;;5064557;28;20198;-67
2022/02/04 18:06:12;;;;;;;2.23;1.40;;;8.20;99.90;;;;;;5083832;28;20189;-68
2022/02/04 18:08:39;;;;;;;3.10;1.50;;;8.20;99.90;;;;;;5084734;28;20189;-66
2022/02/04 18:11:08;;;;;;;3.63;1.60;;;8.20;99.90;;;;;;5085723;28;20186;-67
2022/02/04 18:13:34;;;;;;;2.03;1.30;;;8.20;99.90;;;;;;5066604;28;20218;-64
2022/02/04 18:16:04;;;;;;;3.93;1.60;;;8.20;99.90;;;;;;5065554;28;20201;-65
2022/02/04 18:18:31;;;;;;;2.17;1.53;;;8.10;99.90;;;;;;5064153;28;20179;-65
2022/02/04 18:21:03;;;;;;;4.07;1.70;;;8.10;99.90;;;;;;5065043;28;20261;-65
2022/02/04 18:23:30;;;;;;;3.90;1.40;;;8.10;99.90;;;;;;5065023;28;20187;-67
2022/02/04 18:25:57;;;;;;;2.53;1.50;;;8.00;99.90;;;;;;5065928;28;20187;-65
2022/02/04 18:28:24;;;;;;;3.30;1.40;;;8.00;99.90;;;;;;5065296;28;20245;-66
2022/02/04 18:30:51;;;;;;;2.53;1.50;;;8.00;99.90;;;;;;5065292;28;20293;-66
2022/02/04 18:33:23;;;;;;;2.00;1.20;;;8.00;99.90;;;;;;5063856;28;20864;-67
2022/02/04 18:35:57;;;;;;;4.63;1.27;;;8.00;99.90;;;;;;5064797;28;20270;-66
2022/02/04 18:38:39;;;;;;;2.80;1.73;;;8.00;99.90;;;;;;5047204;28;20232;-65
2022/02/04 18:43:53;;;;;;;3.03;1.57;;;7.90;99.90;;;;;;5093036;28;20344;-65
2022/02/04 18:48:59;;;;;;;2.90;1.40;;;7.90;99.90;;;;;;5064585;28;20175;-68
2022/02/04 18:51:44;;;;;;;3.43;1.70;;;7.80;99.90;;;;;;5065133;28;20174;-69
2022/02/04 18:54:28;;;;;;;1.67;1.10;;;7.80;99.90;;;;;;5064706;28;20210;-65
2022/02/04 18:57:10;;;;;;;1.87;1.07;;;7.80;99.90;;;;;;5048796;28;20191;-66
2022/02/04 18:59:50;;;;;;;2.33;1.60;;;7.80;99.90;;;;;;5083687;28;20654;-67
2022/02/04 19:02:16;;;;;;;4.10;1.33;;;7.80;99.90;;;;;;5066283;28;20185;-66
2022/02/04 19:05:05;;;;;;;3.60;1.70;;;7.80;99.90;;;;;;5084641;28;20233;-66
2022/02/04 19:07:39;;;;;;;4.60;1.30;;;7.80;99.90;;;;;;5082710;28;20186;-66
2022/02/04 19:10:06;;;;;;;3.87;1.60;;;7.80;99.90;;;;;;5083081;28;20262;-66
2022/02/04 19:12:42;;;;;;;3.27;1.40;;;7.80;99.90;;;;;;5084262;28;20233;-67
2022/02/04 19:17:50;;;;;;;4.07;1.50;;;7.80;99.90;;;;;;5085201;28;20223;-65
2022/02/04 19:20:30;;;;;;;3.83;1.90;;;7.70;99.90;;;;;;5083827;28;20398;-66
2022/02/04 19:23:00;;;;;;;3.60;1.20;;;7.70;99.90;;;;;;5084401;28;20637;-66
2022/02/04 19:25:33;;;;;;;7.37;1.50;;;7.70;99.90;;;;;;5084853;28;20182;-68
2022/02/04 19:27:59;;;;;;;5.27;1.53;;;7.60;99.90;;;;;;5073102;28;20210;-65
2022/02/04 19:30:26;;;;;;;3.33;1.67;;;7.60;99.90;;;;;;5067527;28;20186;-64
2022/02/04 19:32:53;;;;;;;5.43;1.20;;;7.60;99.90;;;;;;5083613;28;20250;-66
2022/02/04 19:35:20;;;;;;;3.03;1.20;;;7.60;99.90;;;;;;5080188;28;20228;-65